sensor_id;sensor_type;location;lat;lon;timestamp;temperature;humidity
13982;DHT22;7065;50.880;5.502;2023-06-19T00:02:18;20.90;99.90
13982;DHT22;7065;50.880;5.502;2023-06-19T00:04:44;20.90;99.90
13982;DHT22;7065;50.880;5.502;2023-06-19T00:07:09;20.90;99.90
13982;DHT22;7065;50.880;5.502;2023-06-19T00:09:35;20.80;99.90
13982;DHT22;7065;50.880;5.502;2023-06-19T00:12:00;20.80;99.90
13982;DHT22;7065;50.880;5.502;2023-06-19T00:14:27;20.70;99.90
13982;DHT22;7065;50.880;5.502;2023-06-19T00:16:52;20.70;99.90
13982;DHT22;7065;50.880;5.502;2023-06-19T00:19:18;20.70;99.90
13982;DHT22;7065;50.880;5.502;2023-06-19T00:21:44;20.70;99.90
13982;DHT22;7065;50.880;5.502;2023-06-19T00:24:10;20.70;99.90
13982;DHT22;7065;50.880;5.502;2023-06-19T00:26:36;20.80;99.90
13982;DHT22;7065;50.880;5.502;2023-06-19T00:29:02;20.80;99.90
13982;DHT22;7065;50.880;5.502;2023-06-19T00:31:28;20.90;99.90
13982;DHT22;7065;50.880;5.502;2023-06-19T00:33:54;20.90;99.90
13982;DHT22;7065;50.880;5.502;2023-06-19T00:36:20;20.90;99.90
13982;DHT22;7065;50.880;5.502;2023-06-19T00:38:47;20.90;99.90
13982;DHT22;7065;50.880;5.502;2023-06-19T00:41:15;20.90;99.90
13982;DHT22;7065;50.880;5.502;2023-06-19T00:43:41;20.90;99.90
13982;DHT22;7065;50.880;5.502;2023-06-19T00:46:07;20.80;99.90
13982;DHT22;7065;50.880;5.502;2023-06-19T00:48:34;20.80;99.90
13982;DHT22;7065;50.880;5.502;2023-06-19T00:51:00;20.70;99.90
13982;DHT22;7065;50.880;5.502;2023-06-19T00:53:26;20.70;99.90
13982;DHT22;7065;50.880;5.502;2023-06-19T00:55:53;20.60;99.90
13982;DHT22;7065;50.880;5.502;2023-06-19T00:58:22;20.60;99.90
13982;DHT22;7065;50.880;5.502;2023-06-19T01:00:48;20.50;99.90
13982;DHT22;7065;50.880;5.502;2023-06-19T01:03:15;20.50;99.90
13982;DHT22;7065;50.880;5.502;2023-06-19T01:05:41;20.40;99.90
13982;DHT22;7065;50.880;5.502;2023-06-19T01:11:05;20.40;99.90
13982;DHT22;7065;50.880;5.502;2023-06-19T01:13:50;20.30;99.90
13982;DHT22;7065;50.880;5.502;2023-06-19T01:16:20;20.20;99.90
13982;DHT22;7065;50.880;5.502;2023-06-19T01:18:46;20.20;99.90
13982;DHT22;7065;50.880;5.502;2023-06-19T01:21:16;20.10;99.90
13982;DHT22;7065;50.880;5.502;2023-06-19T01:23:43;20.00;99.90
13982;DHT22;7065;50.880;5.502;2023-06-19T01:26:10;19.90;99.90
13982;DHT22;7065;50.880;5.502;2023-06-19T01:28:36;19.90;99.90
13982;DHT22;7065;50.880;5.502;2023-06-19T01:31:05;19.80;99.90
13982;DHT22;7065;50.880;5.502;2023-06-19T01:33:36;19.90;99.90
13982;DHT22;7065;50.880;5.502;2023-06-19T01:36:03;19.90;99.90
13982;DHT22;7065;50.880;5.502;2023-06-19T01:38:31;19.90;99.90
13982;DHT22;7065;50.880;5.502;2023-06-19T01:40:58;19.90;99.90
13982;DHT22;7065;50.880;5.502;2023-06-19T01:43:25;19.90;99.90
13982;DHT22;7065;50.880;5.502;2023-06-19T01:45:51;19.90;99.90
13982;DHT22;7065;50.880;5.502;2023-06-19T01:48:17;19.80;99.90
13982;DHT22;7065;50.880;5.502;2023-06-19T01:50:47;19.80;99.90
13982;DHT22;7065;50.880;5.502;2023-06-19T01:53:14;19.80;99.90
13982;DHT22;7065;50.880;5.502;2023-06-19T01:55:40;19.70;99.90
13982;DHT22;7065;50.880;5.502;2023-06-19T01:58:06;19.70;99.90
13982;DHT22;7065;50.880;5.502;2023-06-19T02:00:33;19.60;99.90
13982;DHT22;7065;50.880;5.502;2023-06-19T02:03:01;19.60;99.90
13982;DHT22;7065;50.880;5.502;2023-06-19T02:05:27;19.60;99.90
13982;DHT22;7065;50.880;5.502;2023-06-19T02:07:52;19.60;99.90
13982;DHT22;7065;50.880;5.502;2023-06-19T02:10:18;19.70;99.90
13982;DHT22;7065;50.880;5.502;2023-06-19T02:12:44;19.70;99.90
13982;DHT22;7065;50.880;5.502;2023-06-19T02:15:10;19.70;99.90
13982;DHT22;7065;50.880;5.502;2023-06-19T02:17:36;19.70;99.90
13982;DHT22;7065;50.880;5.502;2023-06-19T02:20:01;19.70;99.90
13982;DHT22;7065;50.880;5.502;2023-06-19T02:22:27;19.70;99.90
13982;DHT22;7065;50.880;5.502;2023-06-19T02:24:53;19.70;99.90
13982;DHT22;7065;50.880;5.502;2023-06-19T02:27:18;19.70;99.90
13982;DHT22;7065;50.880;5.502;2023-06-19T02:29:44;19.70;99.90
13982;DHT22;7065;50.880;5.502;2023-06-19T02:32:10;19.70;99.90
13982;DHT22;7065;50.880;5.502;2023-06-19T02:34:36;19.70;99.90
13982;DHT22;7065;50.880;5.502;2023-06-19T02:37:02;19.60;99.90
13982;DHT22;7065;50.880;5.502;2023-06-19T02:39:29;19.50;99.90
13982;DHT22;7065;50.880;5.502;2023-06-19T02:41:54;19.40;99.90
13982;DHT22;7065;50.880;5.502;2023-06-19T02:44:20;19.40;99.90
13982;DHT22;7065;50.880;5.502;2023-06-19T02:46:46;19.30;99.90
13982;DHT22;7065;50.880;5.502;2023-06-19T02:49:11;19.20;99.90
13982;DHT22;7065;50.880;5.502;2023-06-19T02:51:37;19.10;99.90
13982;DHT22;7065;50.880;5.502;2023-06-19T02:54:03;19.10;99.90
13982;DHT22;7065;50.880;5.502;2023-06-19T02:56:29;19.00;99.90
13982;DHT22;7065;50.880;5.502;2023-06-19T02:58:54;19.00;99.90
13982;DHT22;7065;50.880;5.502;2023-06-19T03:01:20;18.90;99.90
13982;DHT22;7065;50.880;5.502;2023-06-19T03:03:46;18.90;99.90
13982;DHT22;7065;50.880;5.502;2023-06-19T03:06:12;18.80;99.90
13982;DHT22;7065;50.880;5.502;2023-06-19T03:08:39;18.70;99.90
13982;DHT22;7065;50.880;5.502;2023-06-19T03:11:05;18.70;99.90
13982;DHT22;7065;50.880;5.502;2023-06-19T03:13:56;18.70;99.90
13982;DHT22;7065;50.880;5.502;2023-06-19T03:16:22;18.60;99.90
13982;DHT22;7065;50.880;5.502;2023-06-19T03:18:47;18.60;99.90
13982;DHT22;7065;50.880;5.502;2023-06-19T03:21:15;18.60;99.90
13982;DHT22;7065;50.880;5.502;2023-06-19T03:23:41;18.60;99.90
13982;DHT22;7065;50.880;5.502;2023-06-19T03:26:08;18.60;99.90
13982;DHT22;7065;50.880;5.502;2023-06-19T03:28:34;18.50;99.90
13982;DHT22;7065;50.880;5.502;2023-06-19T03:31:00;18.50;99.90
13982;DHT22;7065;50.880;5.502;2023-06-19T03:33:26;18.40;99.90
13982;DHT22;7065;50.880;5.502;2023-06-19T03:35:51;18.40;99.90
13982;DHT22;7065;50.880;5.502;2023-06-19T03:38:17;18.40;99.90
13982;DHT22;7065;50.880;5.502;2023-06-19T03:40:43;18.50;99.90
13982;DHT22;7065;50.880;5.502;2023-06-19T03:43:08;18.50;99.90
13982;DHT22;7065;50.880;5.502;2023-06-19T03:45:34;18.50;99.90
13982;DHT22;7065;50.880;5.502;2023-06-19T03:48:00;18.50;99.90
13982;DHT22;7065;50.880;5.502;2023-06-19T03:50:25;18.50;99.90
13982;DHT22;7065;50.880;5.502;2023-06-19T03:52:51;18.50;99.90
13982;DHT22;7065;50.880;5.502;2023-06-19T03:55:17;18.60;99.90
13982;DHT22;7065;50.880;5.502;2023-06-19T03:57:43;18.60;99.90
13982;DHT22;7065;50.880;5.502;2023-06-19T04:00:09;18.60;99.90
13982;DHT22;7065;50.880;5.502;2023-06-19T04:02:36;18.70;99.90
13982;DHT22;7065;50.880;5.502;2023-06-19T04:05:03;18.70;99.90
13982;DHT22;7065;50.880;5.502;2023-06-19T04:07:28;18.80;99.90
13982;DHT22;7065;50.880;5.502;2023-06-19T04:09:55;18.80;99.90
13982;DHT22;7065;50.880;5.502;2023-06-19T04:12:21;18.80;99.90
13982;DHT22;7065;50.880;5.502;2023-06-19T04:14:46;18.90;99.90
13982;DHT22;7065;50.880;5.502;2023-06-19T04:17:13;18.90;99.90
13982;DHT22;7065;50.880;5.502;2023-06-19T04:19:38;18.90;99.90
13982;DHT22;7065;50.880;5.502;2023-06-19T04:22:04;18.90;99.90
13982;DHT22;7065;50.880;5.502;2023-06-19T04:24:30;18.90;99.90
13982;DHT22;7065;50.880;5.502;2023-06-19T04:26:56;18.90;99.90
13982;DHT22;7065;50.880;5.502;2023-06-19T04:29:21;19.00;99.90
13982;DHT22;7065;50.880;5.502;2023-06-19T04:31:47;19.00;99.90
13982;DHT22;7065;50.880;5.502;2023-06-19T04:34:17;19.00;99.90
13982;DHT22;7065;50.880;5.502;2023-06-19T04:36:49;19.00;99.90
13982;DHT22;7065;50.880;5.502;2023-06-19T04:39:15;19.10;99.90
13982;DHT22;7065;50.880;5.502;2023-06-19T04:41:43;19.10;99.90
13982;DHT22;7065;50.880;5.502;2023-06-19T04:44:09;19.10;99.90
13982;DHT22;7065;50.880;5.502;2023-06-19T04:46:37;19.20;99.90
13982;DHT22;7065;50.880;5.502;2023-06-19T04:49:04;19.20;99.90
13982;DHT22;7065;50.880;5.502;2023-06-19T04:51:31;19.20;99.90
13982;DHT22;7065;50.880;5.502;2023-06-19T04:53:58;19.20;99.90
13982;DHT22;7065;50.880;5.502;2023-06-19T04:56:24;19.30;99.90
13982;DHT22;7065;50.880;5.502;2023-06-19T04:58:50;19.20;99.90
13982;DHT22;7065;50.880;5.502;2023-06-19T05:01:17;19.10;99.90
13982;DHT22;7065;50.880;5.502;2023-06-19T05:03:45;19.00;99.90
13982;DHT22;7065;50.880;5.502;2023-06-19T05:06:14;19.00;99.90
13982;DHT22;7065;50.880;5.502;2023-06-19T05:08:39;18.90;99.90
13982;DHT22;7065;50.880;5.502;2023-06-19T05:11:05;18.80;99.90
13982;DHT22;7065;50.880;5.502;2023-06-19T05:13:31;18.70;99.90
13982;DHT22;7065;50.880;5.502;2023-06-19T05:15:56;18.60;99.90
13982;DHT22;7065;50.880;5.502;2023-06-19T05:18:22;18.50;99.90
13982;DHT22;7065;50.880;5.502;2023-06-19T05:20:48;18.50;99.90
13982;DHT22;7065;50.880;5.502;2023-06-19T05:23:13;18.50;99.90
13982;DHT22;7065;50.880;5.502;2023-06-19T05:25:39;18.40;99.90
13982;DHT22;7065;50.880;5.502;2023-06-19T05:28:05;18.50;99.90
13982;DHT22;7065;50.880;5.502;2023-06-19T05:30:30;18.40;99.90
13982;DHT22;7065;50.880;5.502;2023-06-19T05:32:56;18.50;99.90
13982;DHT22;7065;50.880;5.502;2023-06-19T05:35:22;18.50;99.90
13982;DHT22;7065;50.880;5.502;2023-06-19T05:37:48;18.50;99.90
13982;DHT22;7065;50.880;5.502;2023-06-19T05:40:14;18.50;99.90
13982;DHT22;7065;50.880;5.502;2023-06-19T05:42:40;18.50;99.90
13982;DHT22;7065;50.880;5.502;2023-06-19T05:45:06;18.60;99.90
13982;DHT22;7065;50.880;5.502;2023-06-19T05:47:32;18.70;99.90
13982;DHT22;7065;50.880;5.502;2023-06-19T05:49:59;18.70;99.90
13982;DHT22;7065;50.880;5.502;2023-06-19T05:52:24;18.80;99.90
13982;DHT22;7065;50.880;5.502;2023-06-19T05:54:50;18.80;99.90
13982;DHT22;7065;50.880;5.502;2023-06-19T05:57:16;18.80;99.90
13982;DHT22;7065;50.880;5.502;2023-06-19T05:59:47;18.80;99.90
13982;DHT22;7065;50.880;5.502;2023-06-19T06:02:12;18.80;99.90
13982;DHT22;7065;50.880;5.502;2023-06-19T06:04:38;18.70;99.90
13982;DHT22;7065;50.880;5.502;2023-06-19T06:07:04;18.70;99.90
13982;DHT22;7065;50.880;5.502;2023-06-19T06:09:30;18.80;99.90
13982;DHT22;7065;50.880;5.502;2023-06-19T06:11:56;18.90;99.90
13982;DHT22;7065;50.880;5.502;2023-06-19T06:14:23;19.00;99.90
13982;DHT22;7065;50.880;5.502;2023-06-19T06:16:48;19.10;99.90
13982;DHT22;7065;50.880;5.502;2023-06-19T06:19:14;19.10;99.90
13982;DHT22;7065;50.880;5.502;2023-06-19T06:21:40;19.10;99.90
13982;DHT22;7065;50.880;5.502;2023-06-19T06:24:06;19.10;99.90
13982;DHT22;7065;50.880;5.502;2023-06-19T06:26:32;19.10;99.90
13982;DHT22;7065;50.880;5.502;2023-06-19T06:28:58;19.10;99.90
13982;DHT22;7065;50.880;5.502;2023-06-19T06:31:24;19.10;99.90
13982;DHT22;7065;50.880;5.502;2023-06-19T06:33:50;19.10;99.90
13982;DHT22;7065;50.880;5.502;2023-06-19T06:36:16;19.20;99.90
13982;DHT22;7065;50.880;5.502;2023-06-19T06:38:41;19.30;99.90
13982;DHT22;7065;50.880;5.502;2023-06-19T06:41:07;19.30;99.90
13982;DHT22;7065;50.880;5.502;2023-06-19T06:43:33;19.40;99.90
13982;DHT22;7065;50.880;5.502;2023-06-19T06:45:59;19.40;99.90
13982;DHT22;7065;50.880;5.502;2023-06-19T06:48:25;19.50;99.90
13982;DHT22;7065;50.880;5.502;2023-06-19T06:50:51;19.60;99.90
13982;DHT22;7065;50.880;5.502;2023-06-19T06:53:26;19.60;99.90
13982;DHT22;7065;50.880;5.502;2023-06-19T06:55:53;19.60;99.90
13982;DHT22;7065;50.880;5.502;2023-06-19T06:58:19;19.60;99.90
13982;DHT22;7065;50.880;5.502;2023-06-19T07:00:45;19.60;99.90
13982;DHT22;7065;50.880;5.502;2023-06-19T07:03:11;19.70;99.90
13982;DHT22;7065;50.880;5.502;2023-06-19T07:05:36;19.60;99.90
13982;DHT22;7065;50.880;5.502;2023-06-19T07:08:02;19.70;99.90
13982;DHT22;7065;50.880;5.502;2023-06-19T07:10:29;19.70;99.90
13982;DHT22;7065;50.880;5.502;2023-06-19T07:12:55;19.90;99.90
13982;DHT22;7065;50.880;5.502;2023-06-19T07:15:21;19.90;99.90
13982;DHT22;7065;50.880;5.502;2023-06-19T07:17:46;20.00;99.90
13982;DHT22;7065;50.880;5.502;2023-06-19T07:20:13;20.20;99.90
13982;DHT22;7065;50.880;5.502;2023-06-19T07:22:39;20.30;99.90
13982;DHT22;7065;50.880;5.502;2023-06-19T07:25:05;20.40;99.90
13982;DHT22;7065;50.880;5.502;2023-06-19T07:27:31;20.50;99.90
13982;DHT22;7065;50.880;5.502;2023-06-19T07:29:57;20.50;99.90
13982;DHT22;7065;50.880;5.502;2023-06-19T07:32:23;20.60;99.90
13982;DHT22;7065;50.880;5.502;2023-06-19T07:34:49;20.60;99.90
13982;DHT22;7065;50.880;5.502;2023-06-19T07:37:15;20.70;99.90
13982;DHT22;7065;50.880;5.502;2023-06-19T07:39:50;20.70;99.90
13982;DHT22;7065;50.880;5.502;2023-06-19T07:42:17;20.80;99.90
13982;DHT22;7065;50.880;5.502;2023-06-19T07:44:44;20.80;99.90
13982;DHT22;7065;50.880;5.502;2023-06-19T07:47:10;20.80;99.90
13982;DHT22;7065;50.880;5.502;2023-06-19T07:49:36;20.80;99.90
13982;DHT22;7065;50.880;5.502;2023-06-19T07:52:03;20.80;99.90
13982;DHT22;7065;50.880;5.502;2023-06-19T07:54:29;20.70;99.90
13982;DHT22;7065;50.880;5.502;2023-06-19T07:56:55;20.80;99.90
13982;DHT22;7065;50.880;5.502;2023-06-19T07:59:22;20.80;99.90
13982;DHT22;7065;50.880;5.502;2023-06-19T08:01:48;20.80;99.90
13982;DHT22;7065;50.880;5.502;2023-06-19T08:04:14;20.90;99.90
13982;DHT22;7065;50.880;5.502;2023-06-19T08:06:39;21.00;99.90
13982;DHT22;7065;50.880;5.502;2023-06-19T08:09:05;21.10;99.90
13982;DHT22;7065;50.880;5.502;2023-06-19T08:11:31;21.10;99.90
13982;DHT22;7065;50.880;5.502;2023-06-19T08:13:57;21.10;99.90
13982;DHT22;7065;50.880;5.502;2023-06-19T08:16:24;21.20;99.90
13982;DHT22;7065;50.880;5.502;2023-06-19T08:18:51;21.30;99.90
13982;DHT22;7065;50.880;5.502;2023-06-19T08:21:17;21.40;99.90
13982;DHT22;7065;50.880;5.502;2023-06-19T08:23:43;21.50;99.90
13982;DHT22;7065;50.880;5.502;2023-06-19T08:26:09;21.60;99.90
13982;DHT22;7065;50.880;5.502;2023-06-19T08:28:35;21.60;99.90
13982;DHT22;7065;50.880;5.502;2023-06-19T08:31:01;21.60;99.90
13982;DHT22;7065;50.880;5.502;2023-06-19T08:33:27;21.60;99.90
13982;DHT22;7065;50.880;5.502;2023-06-19T08:35:52;21.70;99.90
13982;DHT22;7065;50.880;5.502;2023-06-19T08:38:18;21.60;99.90
13982;DHT22;7065;50.880;5.502;2023-06-19T08:40:45;21.70;99.90
13982;DHT22;7065;50.880;5.502;2023-06-19T08:43:11;21.70;99.90
13982;DHT22;7065;50.880;5.502;2023-06-19T08:45:36;21.70;99.90
13982;DHT22;7065;50.880;5.502;2023-06-19T08:48:03;21.80;99.90
13982;DHT22;7065;50.880;5.502;2023-06-19T08:50:32;21.80;99.90
13982;DHT22;7065;50.880;5.502;2023-06-19T08:52:58;21.80;99.90
13982;DHT22;7065;50.880;5.502;2023-06-19T08:55:24;21.80;99.90
13982;DHT22;7065;50.880;5.502;2023-06-19T08:57:51;21.90;99.90
13982;DHT22;7065;50.880;5.502;2023-06-19T09:00:28;22.00;99.90
13982;DHT22;7065;50.880;5.502;2023-06-19T09:03:02;22.20;99.90
13982;DHT22;7065;50.880;5.502;2023-06-19T09:05:29;22.30;99.90
13982;DHT22;7065;50.880;5.502;2023-06-19T09:07:57;22.30;99.90
13982;DHT22;7065;50.880;5.502;2023-06-19T09:10:23;22.40;99.90
13982;DHT22;7065;50.880;5.502;2023-06-19T09:13:03;22.30;99.90
13982;DHT22;7065;50.880;5.502;2023-06-19T09:15:33;22.40;99.90
13982;DHT22;7065;50.880;5.502;2023-06-19T09:18:07;22.50;99.90
13982;DHT22;7065;50.880;5.502;2023-06-19T09:20:37;22.50;99.90
13982;DHT22;7065;50.880;5.502;2023-06-19T09:23:04;22.70;99.90
13982;DHT22;7065;50.880;5.502;2023-06-19T09:25:30;22.80;99.90
13982;DHT22;7065;50.880;5.502;2023-06-19T09:27:56;22.80;99.90
13982;DHT22;7065;50.880;5.502;2023-06-19T09:30:23;22.90;99.90
13982;DHT22;7065;50.880;5.502;2023-06-19T09:32:48;23.00;99.90
13982;DHT22;7065;50.880;5.502;2023-06-19T09:35:14;23.20;99.90
13982;DHT22;7065;50.880;5.502;2023-06-19T09:37:40;23.10;99.90
13982;DHT22;7065;50.880;5.502;2023-06-19T09:40:07;22.90;99.90
13982;DHT22;7065;50.880;5.502;2023-06-19T09:42:40;22.90;99.90
13982;DHT22;7065;50.880;5.502;2023-06-19T09:45:11;22.90;99.90
13982;DHT22;7065;50.880;5.502;2023-06-19T09:47:38;23.00;99.90
13982;DHT22;7065;50.880;5.502;2023-06-19T09:50:06;22.90;99.90
13982;DHT22;7065;50.880;5.502;2023-06-19T09:52:32;23.00;99.90
13982;DHT22;7065;50.880;5.502;2023-06-19T09:55:02;23.00;99.90
13982;DHT22;7065;50.880;5.502;2023-06-19T09:57:31;23.00;99.90
13982;DHT22;7065;50.880;5.502;2023-06-19T09:59:59;23.10;99.90
13982;DHT22;7065;50.880;5.502;2023-06-19T10:02:35;23.10;99.90
13982;DHT22;7065;50.880;5.502;2023-06-19T10:05:01;23.10;99.90
13982;DHT22;7065;50.880;5.502;2023-06-19T10:07:34;23.20;99.90
13982;DHT22;7065;50.880;5.502;2023-06-19T10:10:01;23.40;99.90
13982;DHT22;7065;50.880;5.502;2023-06-19T10:12:43;23.40;99.90
13982;DHT22;7065;50.880;5.502;2023-06-19T10:17:38;23.70;99.90
13982;DHT22;7065;50.880;5.502;2023-06-19T10:20:36;24.00;99.90
13982;DHT22;7065;50.880;5.502;2023-06-19T10:23:07;24.10;99.90
13982;DHT22;7065;50.880;5.502;2023-06-19T10:25:35;24.10;99.90
13982;DHT22;7065;50.880;5.502;2023-06-19T10:28:02;24.20;99.90
13982;DHT22;7065;50.880;5.502;2023-06-19T10:30:31;24.20;99.90
13982;DHT22;7065;50.880;5.502;2023-06-19T10:32:57;24.30;99.90
13982;DHT22;7065;50.880;5.502;2023-06-19T10:35:23;24.30;99.90
13982;DHT22;7065;50.880;5.502;2023-06-19T10:37:50;24.20;99.90
13982;DHT22;7065;50.880;5.502;2023-06-19T10:40:17;24.20;99.90
13982;DHT22;7065;50.880;5.502;2023-06-19T10:42:43;24.30;99.90
13982;DHT22;7065;50.880;5.502;2023-06-19T10:45:11;24.30;99.90
13982;DHT22;7065;50.880;5.502;2023-06-19T10:47:41;24.40;99.90
13982;DHT22;7065;50.880;5.502;2023-06-19T10:50:16;24.50;99.90
13982;DHT22;7065;50.880;5.502;2023-06-19T10:52:45;24.50;99.90
13982;DHT22;7065;50.880;5.502;2023-06-19T10:55:12;24.50;99.90
13982;DHT22;7065;50.880;5.502;2023-06-19T10:57:39;24.50;99.90
13982;DHT22;7065;50.880;5.502;2023-06-19T11:00:06;24.60;99.90
13982;DHT22;7065;50.880;5.502;2023-06-19T11:02:38;24.60;99.90
13982;DHT22;7065;50.880;5.502;2023-06-19T11:05:05;24.60;99.90
13982;DHT22;7065;50.880;5.502;2023-06-19T11:07:32;24.60;99.90
13982;DHT22;7065;50.880;5.502;2023-06-19T11:09:58;24.60;99.90
13982;DHT22;7065;50.880;5.502;2023-06-19T11:12:24;24.70;99.90
13982;DHT22;7065;50.880;5.502;2023-06-19T11:14:50;24.80;99.90
13982;DHT22;7065;50.880;5.502;2023-06-19T11:17:16;24.90;99.90
13982;DHT22;7065;50.880;5.502;2023-06-19T11:19:46;25.00;99.90
13982;DHT22;7065;50.880;5.502;2023-06-19T11:22:11;24.90;99.90
13982;DHT22;7065;50.880;5.502;2023-06-19T11:24:43;24.90;99.90
13982;DHT22;7065;50.880;5.502;2023-06-19T11:27:22;24.80;99.90
13982;DHT22;7065;50.880;5.502;2023-06-19T11:29:58;25.00;99.90
13982;DHT22;7065;50.880;5.502;2023-06-19T11:32:30;25.00;99.90
13982;DHT22;7065;50.880;5.502;2023-06-19T11:34:57;24.90;99.90
13982;DHT22;7065;50.880;5.502;2023-06-19T11:37:23;25.00;99.90
13982;DHT22;7065;50.880;5.502;2023-06-19T11:39:50;25.10;99.90
13982;DHT22;7065;50.880;5.502;2023-06-19T11:42:18;25.20;99.90
13982;DHT22;7065;50.880;5.502;2023-06-19T11:47:20;25.20;99.90
13982;DHT22;7065;50.880;5.502;2023-06-19T11:49:48;25.20;99.90
13982;DHT22;7065;50.880;5.502;2023-06-19T11:52:13;25.20;99.90
13982;DHT22;7065;50.880;5.502;2023-06-19T11:54:39;25.30;99.90
13982;DHT22;7065;50.880;5.502;2023-06-19T11:57:05;25.40;99.90
13982;DHT22;7065;50.880;5.502;2023-06-19T11:59:31;25.40;99.90
13982;DHT22;7065;50.880;5.502;2023-06-19T12:01:56;25.40;99.90
13982;DHT22;7065;50.880;5.502;2023-06-19T12:04:24;25.50;99.90
13982;DHT22;7065;50.880;5.502;2023-06-19T12:06:50;25.60;99.90
13982;DHT22;7065;50.880;5.502;2023-06-19T12:09:15;25.50;99.90
13982;DHT22;7065;50.880;5.502;2023-06-19T12:11:41;25.60;99.90
13982;DHT22;7065;50.880;5.502;2023-06-19T12:14:07;25.70;99.90
13982;DHT22;7065;50.880;5.502;2023-06-19T12:16:32;25.80;99.90
13982;DHT22;7065;50.880;5.502;2023-06-19T12:18:58;25.80;99.90
13982;DHT22;7065;50.880;5.502;2023-06-19T12:21:24;25.90;99.90
13982;DHT22;7065;50.880;5.502;2023-06-19T12:23:49;25.90;99.90
13982;DHT22;7065;50.880;5.502;2023-06-19T12:26:15;26.10;99.90
13982;DHT22;7065;50.880;5.502;2023-06-19T12:28:41;26.20;99.90
13982;DHT22;7065;50.880;5.502;2023-06-19T12:31:06;26.30;99.90
13982;DHT22;7065;50.880;5.502;2023-06-19T12:33:32;26.30;99.90
13982;DHT22;7065;50.880;5.502;2023-06-19T12:35:58;26.30;99.90
13982;DHT22;7065;50.880;5.502;2023-06-19T12:38:24;26.40;99.90
13982;DHT22;7065;50.880;5.502;2023-06-19T12:40:50;26.40;99.90
13982;DHT22;7065;50.880;5.502;2023-06-19T12:43:15;26.30;99.90
13982;DHT22;7065;50.880;5.502;2023-06-19T12:45:41;26.40;99.90
13982;DHT22;7065;50.880;5.502;2023-06-19T12:48:08;26.40;99.90
13982;DHT22;7065;50.880;5.502;2023-06-19T12:50:35;26.40;99.90
13982;DHT22;7065;50.880;5.502;2023-06-19T12:53:00;26.50;99.90
13982;DHT22;7065;50.880;5.502;2023-06-19T12:55:26;26.50;99.90
13982;DHT22;7065;50.880;5.502;2023-06-19T12:57:52;26.60;99.90
13982;DHT22;7065;50.880;5.502;2023-06-19T13:00:18;26.60;99.90
13982;DHT22;7065;50.880;5.502;2023-06-19T13:02:43;26.70;99.90
13982;DHT22;7065;50.880;5.502;2023-06-19T13:05:12;26.70;99.90
13982;DHT22;7065;50.880;5.502;2023-06-19T13:07:38;26.90;99.90
13982;DHT22;7065;50.880;5.502;2023-06-19T13:10:04;26.90;99.90
13982;DHT22;7065;50.880;5.502;2023-06-19T13:12:31;26.90;99.90
13982;DHT22;7065;50.880;5.502;2023-06-19T13:14:57;27.10;99.90
13982;DHT22;7065;50.880;5.502;2023-06-19T13:17:24;27.20;99.90
13982;DHT22;7065;50.880;5.502;2023-06-19T13:19:49;27.30;99.90
13982;DHT22;7065;50.880;5.502;2023-06-19T13:22:15;27.20;99.90
13982;DHT22;7065;50.880;5.502;2023-06-19T13:24:41;27.30;99.90
13982;DHT22;7065;50.880;5.502;2023-06-19T13:27:06;27.30;99.90
13982;DHT22;7065;50.880;5.502;2023-06-19T13:29:32;27.50;99.90
13982;DHT22;7065;50.880;5.502;2023-06-19T13:31:58;27.50;99.90
13982;DHT22;7065;50.880;5.502;2023-06-19T13:34:23;27.60;99.90
13982;DHT22;7065;50.880;5.502;2023-06-19T13:36:49;27.60;99.90
13982;DHT22;7065;50.880;5.502;2023-06-19T13:39:15;27.40;99.90
13982;DHT22;7065;50.880;5.502;2023-06-19T13:41:40;27.40;99.90
13982;DHT22;7065;50.880;5.502;2023-06-19T13:44:06;27.60;99.90
13982;DHT22;7065;50.880;5.502;2023-06-19T13:46:32;27.70;99.90
13982;DHT22;7065;50.880;5.502;2023-06-19T13:48:58;27.80;99.90
13982;DHT22;7065;50.880;5.502;2023-06-19T13:51:24;27.90;99.90
13982;DHT22;7065;50.880;5.502;2023-06-19T13:53:51;27.90;99.90
13982;DHT22;7065;50.880;5.502;2023-06-19T13:56:17;28.10;99.90
13982;DHT22;7065;50.880;5.502;2023-06-19T13:58:43;28.20;99.90
13982;DHT22;7065;50.880;5.502;2023-06-19T14:01:09;28.30;99.90
13982;DHT22;7065;50.880;5.502;2023-06-19T14:03:37;28.40;99.90
13982;DHT22;7065;50.880;5.502;2023-06-19T14:06:04;28.40;99.90
13982;DHT22;7065;50.880;5.502;2023-06-19T14:08:30;28.30;99.90
13982;DHT22;7065;50.880;5.502;2023-06-19T14:10:56;28.40;99.90
13982;DHT22;7065;50.880;5.502;2023-06-19T14:13:21;28.50;99.90
13982;DHT22;7065;50.880;5.502;2023-06-19T14:15:47;28.50;99.90
13982;DHT22;7065;50.880;5.502;2023-06-19T14:18:13;28.50;99.90
13982;DHT22;7065;50.880;5.502;2023-06-19T14:20:39;28.60;99.90
13982;DHT22;7065;50.880;5.502;2023-06-19T14:23:07;28.70;99.90
13982;DHT22;7065;50.880;5.502;2023-06-19T14:25:33;28.80;99.90
13982;DHT22;7065;50.880;5.502;2023-06-19T14:27:59;29.00;99.90
13982;DHT22;7065;50.880;5.502;2023-06-19T14:30:25;29.10;99.90
13982;DHT22;7065;50.880;5.502;2023-06-19T14:32:50;29.20;99.90
13982;DHT22;7065;50.880;5.502;2023-06-19T14:35:16;29.30;99.90
13982;DHT22;7065;50.880;5.502;2023-06-19T14:37:42;29.40;99.90
13982;DHT22;7065;50.880;5.502;2023-06-19T14:40:08;29.60;99.60
13982;DHT22;7065;50.880;5.502;2023-06-19T14:42:34;29.70;99.70
13982;DHT22;7065;50.880;5.502;2023-06-19T14:45:00;29.60;99.90
13982;DHT22;7065;50.880;5.502;2023-06-19T14:47:26;29.80;99.90
13982;DHT22;7065;50.880;5.502;2023-06-19T14:49:51;29.80;99.50
13982;DHT22;7065;50.880;5.502;2023-06-19T14:52:19;30.10;98.60
13982;DHT22;7065;50.880;5.502;2023-06-19T14:54:45;30.10;99.50
13982;DHT22;7065;50.880;5.502;2023-06-19T14:57:10;30.10;99.10
13982;DHT22;7065;50.880;5.502;2023-06-19T14:59:36;30.20;97.70
13982;DHT22;7065;50.880;5.502;2023-06-19T15:02:02;30.10;96.70
13982;DHT22;7065;50.880;5.502;2023-06-19T15:04:28;30.00;96.90
13982;DHT22;7065;50.880;5.502;2023-06-19T15:06:54;30.10;98.30
13982;DHT22;7065;50.880;5.502;2023-06-19T15:09:19;30.30;97.20
13982;DHT22;7065;50.880;5.502;2023-06-19T15:11:45;30.40;96.20
13982;DHT22;7065;50.880;5.502;2023-06-19T15:14:11;30.50;98.00
13982;DHT22;7065;50.880;5.502;2023-06-19T15:16:36;30.70;96.00
13982;DHT22;7065;50.880;5.502;2023-06-19T15:19:02;31.00;95.70
13982;DHT22;7065;50.880;5.502;2023-06-19T15:21:28;31.40;95.50
13982;DHT22;7065;50.880;5.502;2023-06-19T15:23:54;31.70;94.10
13982;DHT22;7065;50.880;5.502;2023-06-19T15:26:22;31.80;93.20
13982;DHT22;7065;50.880;5.502;2023-06-19T15:28:48;32.40;92.90
13982;DHT22;7065;50.880;5.502;2023-06-19T15:31:14;33.60;91.80
13982;DHT22;7065;50.880;5.502;2023-06-19T15:33:42;34.80;90.60
13982;DHT22;7065;50.880;5.502;2023-06-19T15:36:08;35.80;86.20
13982;DHT22;7065;50.880;5.502;2023-06-19T15:38:33;36.50;83.30
13982;DHT22;7065;50.880;5.502;2023-06-19T15:40:59;37.30;81.00
13982;DHT22;7065;50.880;5.502;2023-06-19T15:43:25;37.50;78.90
13982;DHT22;7065;50.880;5.502;2023-06-19T15:45:57;37.80;76.00
13982;DHT22;7065;50.880;5.502;2023-06-19T15:48:23;38.80;76.60
13982;DHT22;7065;50.880;5.502;2023-06-19T15:50:49;39.10;69.30